Station: Kennaook / Cape Grim  

  Atmospheric Gas Attenuation - ITU Rec 676-11   ----------------- dB/100km -----------------
Date Time Temp RH % AH g/m3 Dew Point Wind Direction Speed kph Gust kph Barometer mB Rainfall Since 9am 24GHz 47GHz 76GHz 122GHz 134GHz 241GHz
08/05 12:30 12.8 76 8.51 8.7 46 63 1020.3 0 19.4 26.3 40.3 105.6 99.1 340.6
08/05 12:20 13 75 8.51 8.7 46 57 1020.3 0 19.4 26.2 40.2 105.3 98.8 339.7
08/05 12:10 13.2 71 8.15 8.1 44 54 1020.3 0 18.6 25.6 38.6 101.2 93.8 322.1
08/05 12:00 13.1 73 8.33 8.4 46 61 1020.2 0 19.0 25.9 39.4 103.2 96.3 330.9
08/05 11:50 13.5 73 8.54 8.8 52 61 1020 0 19.5 26.1 40.0 104.9 98.5 338.9
08/05 11:40 13.2 74 8.5 8.7 46 56 1019.9 0 19.4 26.2 40.0 104.9 98.4 338.3
08/05 11:30 13.3 76 8.78 9.2 48 63 1019.9 0 20.0 26.6 41.1 107.8 102.0 350.9
08/05 11:20 13.3 74 8.55 8.8 44 54 1019.8 0 19.5 26.2 40.1 105.3 98.9 340.1
08/05 11:10 13.1 74 8.44 8.6 48 57 1019.7 0 19.3 26.1 39.8 104.3 97.7 335.8
08/05 11:00 13.2 74 8.5 8.7 50 63 1019.5 0 19.4 26.1 40.0 104.8 98.3 338.2
08/05 10:50 13 74 8.39 8.5 48 57 1019.5 0 19.2 26.0 39.6 103.9 97.1 333.9
08/05 10:40 13 76 8.62 8.9 41 56 1019.4 0 19.7 26.4 40.6 106.4 100.2 344.6
08/05 10:30 12.8 79 8.85 9.3 46 61 1019.3 0 20.2 26.8 41.6 109.2 103.6 356.3
08/05 10:20 12.9 76 8.57 8.8 52 57 1019.2 0 19.6 26.3 40.4 106.0 99.6 342.6
08/05 10:10 13 75 8.51 8.7 50 57 1019 0 19.4 26.2 40.1 105.1 98.7 339.3
08/05 10:00 12.8 79 8.85 9.3 50 67 1018.8 0 20.2 26.8 41.6 109.1 103.5 356.2
08/05 09:50 12.6 80 8.85 9.2 54 61 1018.7 0 20.2 26.9 41.7 109.4 103.8 357.1
08/05 09:40 12.2 84 9.07 9.6 52 61 1018.7 0 20.7 27.4 42.8 112.4 107.3 369.5
08/05 09:30 12.7 81 9.02 9.5 57 70 1018.4 0 20.5 27.1 42.3 111.1 105.9 364.6
08/05 09:20 12.5 79 8.69 9 61 70 1018.1 0 19.8 26.6 41.0 107.7 101.7 349.8
08/05 09:10 12.8 79 8.85 9.3 52 67 1017.9 0 20.2 26.8 41.5 109.0 103.4 355.9
08/05 09:00 12.8 80 8.96 9.4 56 72 1017.8 0 20.4 27.0 42.0 110.2 104.9 361.1
08/05 08:50 12.8 77 8.63 8.9 63 70 1017.6 8.6 19.7 26.4 40.6 106.6 100.4 345.5
08/05 08:40 12.6 78 8.63 8.9 65 74 1017.4 8.6 19.7 26.5 40.7 106.8 100.7 346.3
08/05 08:30 12.8 78 8.74 9.1 54 74 1017.1 8.6 19.9 26.6 41.0 107.7 101.9 350.5
08/05 08:20 12.9 82 9.24 9.9 56 63 1017 8.6 21.0 27.4 43.1 113.1 108.5 373.8
08/05 08:10 12.5 79 8.69 9 61 69 1016.7 8.6 19.8 26.6 41.0 107.5 101.6 349.4
08/05 08:00 12.7 80 8.91 9.3 57 74 1016.6 8.6 20.3 26.9 41.8 109.7 104.3 358.9
08/05 07:50 12.3 82 8.9 9.3 56 69 1016.4 8.6 20.3 27.0 41.9 110.1 104.7 360.2
08/05 07:40 12.9 77 8.68 9 57 65 1016.3 8.6 19.8 26.4 40.7 106.8 100.9 347.0
08/05 07:30 13 76 8.62 8.9 67 83 1015.9 8.6 19.7 26.3 40.4 106.0 99.9 343.6
08/05 07:20 13 76 8.62 8.9 69 80 1015.7 8.6 19.7 26.3 40.4 106.0 99.9 343.6
08/05 07:10 12.9 75 8.45 8.6 70 83 1015.6 8.6 19.3 26.0 39.7 104.3 97.7 336.0
08/05 07:00 12.4 77 8.41 8.5 69 87 1015.4 8.6 19.2 26.1 39.8 104.5 97.8 336.3
08/05 06:50 12.4 81 8.85 9.2 78 91 1015.1 8.6 20.2 26.8 41.6 109.3 103.7 357.0
08/05 06:40 13 73 8.28 8.3 74 83 1014.9 8.6 18.9 25.7 39.0 102.2 95.3 327.5
08/05 06:30 13 75 8.51 8.7 69 87 1014.8 8.6 19.4 26.0 39.9 104.7 98.3 338.2
08/05 06:20 12.9 76 8.57 8.8 69 82 1014.6 8.6 19.6 26.2 40.2 105.5 99.3 341.4
08/05 06:10 12.7 77 8.57 8.8 72 89 1014.4 8.6 19.6 26.2 40.3 105.7 99.5 342.2
08/05 06:00 12.8 77 8.63 8.9 74 89 1014.2 8.6 19.7 26.3 40.5 106.2 100.2 344.5
08/05 05:50 12.7 78 8.68 9 72 80 1014.1 8.6 19.8 26.4 40.7 106.9 101.0 347.3
08/05 05:40 13.1 78 8.9 9.4 67 83 1014 8.6 20.3 26.6 41.4 108.7 103.4 355.8
08/05 05:30 13.1 77 8.79 9.2 74 95 1013.7 8.6 20.0 26.4 40.9 107.5 101.9 350.6
08/05 05:20 12.9 72 8.12 8 72 85 1013.5 8.6 18.6 25.4 38.3 100.5 93.2 320.2
08/05 05:10 12.7 70 7.79 7.4 82 95 1013.5 8.6 17.9 24.9 37.1 97.3 89.1 305.9
08/05 05:00 12.7 77 8.57 8.8 74 96 1013.4 8.6 19.6 26.2 40.2 105.6 99.4 341.9
08/05 04:50 12.6 80 8.85 9.2 72 85 1013.3 8.6 20.2 26.7 41.4 108.8 103.3 355.5
08/05 04:40 12.2 85 9.17 9.8 78 95 1013.1 8.6 20.9 27.3 43.0 112.9 108.2 372.6
08/05 04:30 12.5 78 8.58 8.8 78 96 1013 8.6 19.6 26.2 40.4 105.9 99.8 343.1
08/05 04:20 11.8 85 8.95 9.4 78 89 1012.9 8.6 20.4 27.1 42.3 111.0 105.7 363.9
08/05 04:10 12 84 8.95 9.4 85 96 1012.9 8.6 20.4 27.0 42.1 110.7 105.5 363.0
08/05 04:00 12.2 79 8.53 8.7 80 98 1012.8 8.6 19.5 26.2 40.3 105.8 99.5 342.0
08/05 03:50 12.3 87 9.45 10.2 74 89 1012.9 8.6 21.5 27.7 44.1 115.9 111.9 385.7
08/05 03:40 12.5 84 9.24 9.9 78 91 1012.9 8.6 21.0 27.3 43.1 113.2 108.7 374.5
08/05 03:30 12.5 84 9.24 9.9 80 98 1013.2 8.6 21.0 27.3 43.1 113.3 108.8 374.6
08/05 03:20 12.8 80 8.96 9.4 83 96 1013.1 8.6 20.4 26.8 41.8 109.7 104.5 359.8
08/05 03:10 12.8 82 9.19 9.8 72 91 1013.2 8.6 20.9 27.2 42.7 112.3 107.7 370.8
08/05 03:00 13 82 9.3 10 67 95 1013.2 8.6 21.1 27.3 43.1 113.2 108.9 375.1
08/05 02:50 12.7 81 9.02 9.5 83 91 1013.2 8.6 20.5 26.9 42.1 110.5 105.5 363.1
08/05 02:40 12.7 85 9.46 10.2 69 83 1013.3 8.6 21.5 27.7 43.9 115.4 111.5 384.3
08/05 02:30 11.9 86 9.11 9.6 72 104 1013.5 8.6 20.8 27.3 42.9 112.7 107.9 371.3
08/05 02:20 13 85 9.64 10.5 72 83 1013.5 8.6 21.9 27.9 44.5 117.0 113.6 391.6
08/05 02:10 12.7 82 9.13 9.7 65 85 1013.5 8.6 20.8 27.1 42.5 111.8 107.0 368.5
08/05 02:00 12.8 80 8.96 9.4 65 89 1013.6 8.6 20.4 26.8 41.8 109.8 104.6 359.9
08/05 01:50 13 83 9.41 10.2 54 82 1013.5 8.6 21.4 27.5 43.6 114.5 110.4 380.5
08/05 01:40 12.9 82 9.24 9.9 67 78 1013.9 8.6 21.0 27.2 42.9 112.8 108.3 372.9
08/05 01:30 12.2 85 9.17 9.8 65 83 1013.8 8.6 20.9 27.3 43.0 113.0 108.3 372.9
08/05 01:20 12.9 81 9.13 9.7 67 80 1013.6 8.6 20.8 27.0 42.4 111.5 106.7 367.5
08/05 01:10 13 85 9.64 10.5 52 70 1013.6 8.6 21.9 27.9 44.5 117.0 113.6 391.6
08/05 01:00 12.9 84 9.47 10.3 54 85 1013.6 8.6 21.5 27.6 43.9 115.3 111.4 383.9
08/05 00:50 12.7 84 9.35 10.1 67 83 1013.6 8.6 21.3 27.5 43.5 114.2 110.0 379.1
08/05 00:40 12.4 90 9.83 10.8 52 69 1013.7 8.6 22.3 28.4 45.7 120.1 117.2 404.0
08/05 00:30 12.6 88 9.74 10.7 57 82 1013.7 8.4 22.1 28.2 45.2 118.8 115.6 398.5
08/05 00:20 12.3 88 9.56 10.4 61 78 1013.7 8.4 21.7 28.0 44.6 117.2 113.5 391.3
08/05 00:10 11.9 93 9.85 10.8 48 69 1013.7 8.4 22.4 28.6 46.1 121.1 118.2 407.6
08/05 00:00 12.3 91 9.88 10.9 61 96 1013.7 8.4 22.4 28.5 46.0 120.9 118.0 407.0
07/05 23:50 12.5 87 9.57 10.4 67 87 1013.6 8.2 21.7 27.9 44.5 117.0 113.4 390.7
07/05 23:40 11.7 93 9.73 10.6 54 80 1013.6 8.2 22.1 28.4 45.7 120.1 116.8 402.7
07/05 23:30 12.3 91 9.88 10.9 63 98 1014.1 8 22.4 28.5 46.0 120.9 118.1 407.1
07/05 23:20 12.7 90 10.02 11.1 61 85 1013.8 7.8 22.7 28.6 46.3 121.8 119.4 411.8
07/05 23:10 12.5 90 9.9 10.9 61 85 1013.8 7.8 22.4 28.5 45.9 120.8 118.0 406.9
07/05 23:00 12.9 91 10.26 11.5 48 80 1014.1 7.6 23.2 29.0 47.3 124.3 122.5 422.7
07/05 22:50 12.7 91 10.13 11.3 46 74 1014 7.6 22.9 28.8 46.8 123.1 121.0 417.3
07/05 22:40 12.7 94 10.46 11.8 37 72 1014.1 7.4 23.6 29.4 48.2 127.0 125.7 433.8
07/05 22:30 12.9 93 10.48 11.8 41 80 1014.1 7.4 23.7 29.4 48.2 126.9 125.7 433.7
07/05 22:20 12.5 92 10.12 11.2 37 54 1014 7.2 22.9 28.9 46.9 123.3 121.2 417.9
07/05 22:10 12.5 92 10.12 11.2 43 72 1014 7.2 22.9 28.9 46.9 123.3 121.2 417.9
07/05 22:00 12.4 94 10.27 11.5 44 72 1014 7.2 23.2 29.2 47.6 125.2 123.5 425.9
07/05 21:50 12.5 95 10.45 11.7 41 48 1014.1 7.2 23.6 29.5 48.3 127.2 125.9 434.4
07/05 21:40 12.5 95 10.45 11.7 43 63 1014.1 7 23.6 29.5 48.3 127.2 125.9 434.4
07/05 21:30 12.8 95 10.64 12 43 85 1014.1 7 24.0 29.7 49.0 128.9 128.1 442.2
07/05 21:20 12.5 94 10.34 11.6 37 57 1014.2 6.6 23.4 29.3 47.9 125.9 124.3 428.9
07/05 21:10 12.7 94 10.46 11.8 44 70 1014.1 6.2 23.6 29.4 48.2 127.0 125.7 433.8
07/05 21:00 12.5 91 10.01 11.1 39 67 1014.1 5.6 22.7 28.7 46.4 122.1 119.6 412.5
07/05 20:50 12.8 90 10.08 11.2 46 67 1014.1 5.2 22.8 28.7 46.5 122.4 120.1 414.3
07/05 20:40 12.6 91 10.07 11.2 41 74 1014.1 5 22.8 28.8 46.6 122.6 120.3 414.9
07/05 20:30 12.3 90 9.77 10.7 43 76 1014.2 5 22.2 28.3 45.5 119.7 116.5 401.7
07/05 20:20 12.3 94 10.21 11.4 46 67 1014.2 5 23.1 29.1 47.4 124.7 122.8 423.5
07/05 20:10 12.1 92 9.87 10.8 43 63 1014.4 5 22.4 28.6 46.1 121.1 118.3 407.8
07/05 20:00 12.2 94 10.14 11.3 43 69 1014.4 5 23.0 29.0 47.2 124.1 122.0 420.7

Last Refresh: 08-May-2026 12:08:51

Bureau of Meteorology